Flight Track Log - Related Links

Times and Time Zones

All times are in EDT time to prevent confusion due to time zone crossing. See the SWA2166 flight status page for this flight to view local times or setup timezone preferences in your user account.


Time Position Orientation Groundspeed Altitude Reporting Facility
EDT Latitude Longitude Course Direction KTS MPH feet Rate Location/Type
Fri 09:45:47 PM 29.6606 -95.2644 15° North 164 189 800  Level Houston Center
Fri 09:46:06 PM 29.6728 -95.2606 15° North 167 192 1,700 3,162 Climbing Houston Center
Fri 09:47:01 PM 29.7261 -95.2708 350° North 220 253 4,700 2,880 Climbing Houston Center
Fri 09:47:21 PM 29.7372 -95.2728 351° North 205 236 5,300 3,800 Climbing Houston Center
Fri 09:48:01 PM 29.7919 -95.2797 354° North 242 278 8,500 3,934 Climbing Houston Center
Fri 09:48:22 PM 29.8047 -95.2817 352° North 232 267 9,300 2,854 Climbing Houston Center
Fri 09:49:23 PM 29.8736 -95.2844 358° North 245 282 12,400 2,829 Climbing Houston Center
Fri 09:50:25 PM 29.9767 -95.2297 25° Northeast 340 391 15,100 2,683 Climbing Houston Center
Fri 09:51:26 PM 30.0753 -95.1794 24° Northeast 379 436 17,900 2,459 Climbing Houston Center
Fri 09:52:27 PM 30.1828 -95.1219 25° Northeast 424 488 20,100 2,488 Climbing Houston Center
Fri 09:53:29 PM 30.2947 -95.0644 24° Northeast 439 505 23,000 2,488 Climbing Houston Center
Fri 09:54:30 PM 30.4122 -95.0011 25° Northeast 468 539 25,200 2,213 Climbing Houston Center
Fri 09:55:31 PM 30.5228 -94.9153 34° Northeast 468 539 27,500 2,244 Climbing Houston Center
Fri 09:56:33 PM 30.6350 -94.8275 34° Northeast 480 552 29,800 1,902 Climbing Houston Center
Fri 09:57:34 PM 30.7417 -94.7275 39° Northeast 495 570 31,400 1,623 Climbing Houston Center
Fri 09:58:35 PM 30.8328 -94.6036 49° Northeast 507 583 33,100 1,918 Climbing Houston Center
Fri 09:59:36 PM 30.9428 -94.4553 49° Northeast 510 587 35,300 2,066 Climbing Houston Center
Fri 10:00:37 PM 31.0325 -94.3342 49° Northeast 502 578 37,300 1,512 Climbing Houston Center
Fri 10:01:39 PM 31.1222 -94.2128 49° Northeast 499 574 38,400 829 Climbing Houston Center
Fri 10:02:40 PM 31.2133 -94.0906 49° Northeast 501 577 39,000 295 Climbing Houston Center
Fri 10:03:41 PM 31.3033 -93.9658 50° Northeast 503 579 39,000  Level Houston Center
Fri 10:04:42 PM 31.3944 -93.8433 49° Northeast 501 577 39,000  Level Houston Center
Fri 10:05:43 PM 31.4844 -93.7192 50° Northeast 499 574 39,000  Level Houston Center
Fri 10:06:45 PM 31.5744 -93.5958 49° Northeast 498 573 39,000  Level Houston Center
Fri 10:07:46 PM 31.6817 -93.4478 50° Northeast 499 574 39,000  Level Houston Center
Fri 10:08:47 PM 31.7725 -93.3233 49° Northeast 500 575 39,000  Level Houston Center
Fri 10:09:48 PM 31.8611 -93.1983 50° Northeast 498 573 39,000  Level Houston Center
Fri 10:10:49 PM 31.9506 -93.0722 50° Northeast 499 574 39,000  Level Houston Center
Fri 10:11:51 PM 32.0347 -92.9550 50° Northeast 495 570 39,000  Level Houston Center
Fri 10:12:52 PM 32.1294 -92.8231 50° Northeast 497 572 39,000  Level Houston Center
Fri 10:13:53 PM 32.2175 -92.6961 51° Northeast 498 573 39,000  Level Houston Center
Fri 10:14:54 PM 32.3017 -92.5803 49° Northeast 497 572 39,000  Level Houston Center
Fri 10:15:55 PM 32.3894 -92.4528 51° Northeast 499 574 39,000  Level Houston Center
Fri 10:16:32 PM 32.4503 -92.3669 50° Northeast 488 562 39,000  Level Fort Worth Center
Fri 10:17:32 PM 32.5392 -92.2411 50° Northeast 488 562 39,000  Level Fort Worth Center
Fri 10:18:32 PM 32.6278 -92.1103 51° Northeast 493 567 39,000  Level Fort Worth Center
Fri 10:20:20 PM 32.7858 -91.8794 51° Northeast 505 581 39,000  Level Memphis Center
Fri 10:21:20 PM 32.8772 -91.7525 49° Northeast 510 587 39,000  Level Memphis Center
Fri 10:22:20 PM 32.9642 -91.6225 51° Northeast 510 587 39,000  Level Memphis Center
Fri 10:23:20 PM 33.0531 -91.4925 51° Northeast 505 581 39,000  Level Memphis Center
Fri 10:24:20 PM 33.1336 -91.3544 55° Northeast 505 581 39,000  Level Memphis Center
Fri 10:25:20 PM 33.2097 -91.2089 58° Northeast 505 581 39,000  Level Memphis Center
Fri 10:26:20 PM 33.2858 -91.0681 57° Northeast 505 581 39,000  Level Memphis Center
Fri 10:27:20 PM 33.3594 -90.9219 59° Northeast 510 587 39,000  Level Memphis Center
Fri 10:28:20 PM 33.4372 -90.7756 57° Northeast 516 594 39,000  Level Memphis Center
Fri 10:29:20 PM 33.5128 -90.6289 58° Northeast 516 594 39,000  Level Memphis Center
Fri 10:30:20 PM 33.5883 -90.4794 59° Northeast 516 594 39,000  Level Memphis Center
Fri 10:31:20 PM 33.6656 -90.3272 59° Northeast 516 594 39,000  Level Memphis Center
Fri 10:32:20 PM 33.7406 -90.1797 59° Northeast 516 594 39,000  Level Memphis Center
Fri 10:33:20 PM 33.8175 -90.0297 58° Northeast 516 594 39,000  Level Memphis Center
Fri 10:34:20 PM 33.8900 -89.8767 60° Northeast 522 601 39,000  Level Memphis Center
Fri 10:35:20 PM 33.9686 -89.7236 58° Northeast 527 606 39,000  Level Memphis Center
Fri 10:36:20 PM 34.0408 -89.5725 60° Northeast 527 606 39,000  Level Memphis Center
Fri 10:37:20 PM 34.1169 -89.4214 59° Northeast 522 601 39,000  Level Memphis Center
Fri 10:38:20 PM 34.1931 -89.2697 59° Northeast 522 601 39,000  Level Memphis Center
Fri 10:39:20 PM 34.2667 -89.1181 60° Northeast 522 601 39,000  Level Memphis Center
Fri 10:40:20 PM 34.3483 -88.9533 59° Northeast 521 600 39,000  Level Memphis Center
Fri 10:41:20 PM 34.4053 -88.8342 60° Northeast 516 594 39,000  Level Memphis Center
Fri 10:42:20 PM 34.4911 -88.6764 57° Northeast 510 587 39,000  Level Memphis Center
Fri 10:43:20 PM 34.5619 -88.5236 61° Northeast 510 587 39,000  Level Memphis Center
Fri 10:44:20 PM 34.6367 -88.3731 59° Northeast 510 587 39,000  Level Memphis Center
Fri 10:45:20 PM 34.7114 -88.2222 59° Northeast 517 595 39,000  Level Memphis Center
Fri 10:46:20 PM 34.7917 -88.0433 61° Northeast 531 611 39,000  Level Memphis Center
Fri 10:47:20 PM 34.8700 -87.8842 59° Northeast 536 617 39,000  Level Memphis Center
Fri 10:48:20 PM 34.9417 -87.7250 61° Northeast 529 609 39,000  Level Memphis Center
Fri 10:49:20 PM 35.0156 -87.5681 60° Northeast 541 623 39,000  Level Memphis Center
Fri 10:51:32 PM 35.1822 -87.2119 60° Northeast 554 638 39,000  Level Memphis Center
Fri 10:52:32 PM 35.2556 -87.0642 59° Northeast 561 646 39,000  Level Memphis Center
Fri 10:53:32 PM 35.3306 -86.9008 61° Northeast 561 646 39,000  Level Memphis Center
Fri 10:54:32 PM 35.4128 -86.7167 61° Northeast 555 639 39,000 -200 Level Memphis Center
Fri 10:55:32 PM 35.4892 -86.5500 61° Northeast 555 639 38,600 -850 Descending Memphis Center
Fri 10:56:32 PM 35.5633 -86.3883 61° Northeast 555 639 37,300 -800 Descending Memphis Center
Fri 10:57:32 PM 35.6372 -86.2267 61° Northeast 550 633 37,000 -150 Descending Memphis Center
Fri 10:58:32 PM 35.7111 -86.0644 61° Northeast 550 633 37,000  Level Memphis Center
Fri 10:59:32 PM 35.7844 -85.8992 61° Northeast 545 627 37,000  Level Memphis Center
Fri 11:00:32 PM 35.8500 -85.7550 61° Northeast 540 621 37,000  Level Memphis Center
Fri 11:01:26 PM 35.9256 -85.5850 61° Northeast 538 619 37,000  Level Atlanta Center
Fri 11:02:26 PM 35.9983 -85.4222 61° Northeast 582 670 37,000  Level Atlanta Center
Fri 11:03:26 PM 36.0731 -85.2564 61° Northeast 555 639 37,000  Level Atlanta Center
Fri 11:04:38 PM 36.1603 -85.0531 62° Northeast 553 636 37,000  Level Indianapolis Center
Fri 11:05:39 PM 36.2344 -84.8847 61° Northeast 549 632 37,000  Level Indianapolis Center
Fri 11:06:40 PM 36.3075 -84.7144 62° Northeast 553 636 37,000  Level Indianapolis Center
Fri 11:07:42 PM 36.3797 -84.5464 62° Northeast 549 632 37,000  Level Indianapolis Center
Fri 11:08:43 PM 36.4522 -84.3769 62° Northeast 554 638 37,000  Level Indianapolis Center
Fri 11:09:44 PM 36.5256 -84.2039 62° Northeast 552 635 37,000  Level Indianapolis Center
Fri 11:10:45 PM 36.5986 -84.0328 62° Northeast 558 642 37,000  Level Indianapolis Center
Fri 11:11:46 PM 36.6706 -83.8608 62° Northeast 560 644 37,000  Level Indianapolis Center
Fri 11:12:47 PM 36.7453 -83.6900 61° Northeast 558 642 37,000  Level Indianapolis Center
Fri 11:13:48 PM 36.8186 -83.5150 62° Northeast 565 650 37,000  Level Indianapolis Center
Fri 11:14:49 PM 36.8911 -83.3419 62° Northeast 559 643 37,000  Level Indianapolis Center
Fri 11:15:51 PM 36.9633 -83.1661 63° Northeast 562 647 37,000  Level Indianapolis Center
Fri 11:16:52 PM 37.0378 -82.9886 62° Northeast 561 646 37,000  Level Indianapolis Center
Fri 11:17:53 PM 37.1114 -82.8081 63° Northeast 567 652 37,000  Level Indianapolis Center
Fri 11:18:54 PM 37.1822 -82.6314 63° Northeast 562 647 37,000  Level Indianapolis Center
Fri 11:19:55 PM 37.2553 -82.4567 62° Northeast 564 649 37,000  Level Indianapolis Center
Fri 11:20:56 PM 37.3256 -82.2803 63° Northeast 563 648 37,000  Level Indianapolis Center
Fri 11:21:57 PM 37.3967 -82.1047 63° Northeast 563 648 37,000  Level Indianapolis Center
Fri 11:22:58 PM 37.4669 -81.9292 63° Northeast 562 647 37,000  Level Indianapolis Center
Fri 11:23:59 PM 37.5275 -81.7464 67° East 564 649 37,000  Level Indianapolis Center
Fri 11:25:00 PM 37.5928 -81.5317 69° East 562 647 37,000  Level Indianapolis Center
Fri 11:26:01 PM 37.6464 -81.3539 69° East 562 647 37,000  Level Indianapolis Center
Fri 11:26:25 PM 37.6692 -81.2800 69° East 553 636 37,000  Level Washington Center
Fri 11:27:25 PM 37.7233 -81.1003 69° East 553 636 37,000  Level Washington Center
Fri 11:28:25 PM 37.7747 -80.9333 69° East 558 642 37,000  Level Washington Center
Fri 11:29:25 PM 37.8289 -80.7478 70° East 558 642 37,000  Level Washington Center
Fri 11:30:25 PM 37.8825 -80.5647 70° East 553 636 37,000  Level Washington Center
Fri 11:31:24 PM 37.9378 -80.3814 69° East 558 642 37,000  Level Washington Center
Fri 11:32:24 PM 37.9981 -80.1769 69° East 558 642 37,000  Level Washington Center
Fri 11:33:24 PM 38.0528 -79.9931 69° East 558 642 37,000  Level Washington Center
Fri 11:34:24 PM 38.1056 -79.8061 70° East 558 642 37,000  Level Washington Center
Fri 11:35:24 PM 38.1597 -79.6217 69° East 558 642 37,000 -545 Level Washington Center
Fri 11:36:25 PM 38.2139 -79.4342 70° East 558 642 35,900 -1,835 Descending Washington Center
Fri 11:37:25 PM 38.2678 -79.2492 70° East 558 642 33,300 -2,500 Descending Washington Center
Fri 11:38:25 PM 38.3122 -79.0822 71° East 553 636 30,900 -2,300 Descending Washington Center
Fri 11:39:25 PM 38.3611 -78.9069 70° East 543 625 28,700 -1,950 Descending Washington Center
Fri 11:40:25 PM 38.4100 -78.7183 72° East 523 602 27,000 -857 Descending Washington Center
Fri 11:41:24 PM 38.4581 -78.5428 71° East 516 594 27,000 -50 Level Washington Center
Fri 11:42:24 PM 38.5061 -78.3617 71° East 522 601 26,900 -1,400 Descending Washington Center
Fri 11:43:24 PM 38.5561 -78.1803 71° East 529 609 24,200 -2,800 Descending Washington Center
Fri 11:44:24 PM 38.6036 -78.0039 71° East 529 609 21,300 -2,600 Descending Washington Center
Fri 11:45:24 PM 38.6422 -77.8350 74° East 514 592 19,000 -1,150 Descending Washington Center
Fri 11:46:24 PM 38.6511 -77.6892 85° East 480 552 19,000  Level Washington Center
Fri 11:47:04 PM 38.6667 -77.5667 81° East 464 534 19,000 -1,620 Level Potomac TRACON
Fri 11:48:04 PM 38.6667 -77.4000 90° East 457 526 16,300 -1,600 Descending Potomac TRACON
Fri 11:49:04 PM 38.6833 -77.2500 82° East 434 499 15,800 -1,632 Descending Potomac TRACON
Fri 11:49:58 PM 38.7000 -77.1167 81° East 428 493 13,200 -2,667 Descending Potomac TRACON
Fri 11:50:52 PM 38.7167 -76.9833 81° East 419 482 11,000 -1,600 Descending Potomac TRACON
Fri 11:51:58 PM 38.7500 -76.8333 74° East 369 425 10,000 -1,190 Descending Potomac TRACON
Fri 11:52:58 PM 38.7667 -76.7167 80° East 335 386 8,500 -1,381 Descending Potomac TRACON
Fri 11:54:04 PM 38.8333 -76.6333 44° Northeast 313 360 7,100 -1,400 Descending Potomac TRACON
Fri 11:54:58 PM 38.9000 -76.5667 38° Northeast 306 352 5,700 -1,167 Descending Potomac TRACON
Fri 11:55:52 PM 38.9500 -76.5167 38° Northeast 263 303 5,000 -737 Descending Potomac TRACON
Fri 11:56:52 PM 39.0000 -76.4667 38° Northeast 213 245 4,300 -810 Descending Potomac TRACON
Fri 11:57:58 PM 39.0167 -76.5167 293° West 162 186 3,300 -850 Descending Potomac TRACON
Fri 11:58:52 PM 39.0500 -76.5500 322° Northwest 142 163 2,600 -626 Descending Potomac TRACON
Fri 11:59:53 PM 39.0833 -76.5833 322° Northwest 140 161 2,100 -496 Descending Potomac TRACON
Sat 12:00:53 AM 39.1000 -76.6167 303° West 141 162 1,600 -571 Descending Potomac TRACON
Sat 12:01:59 AM 39.1333 -76.6333 339° North 108 124 900 -600 Descending Potomac TRACON
Sat 12:02:53 AM 39.1500 -76.6500 322° Northwest 113 130 400 -556 Descending Potomac TRACON
Sat 12:04:00 AM 39.1667 -76.6667 339° North  Level FlightAware Approximate
Sat 12:11:00 AM 39.1754 -76.6683 339° North  Level Estimated
Sat 12:12:00 AM 39.1754 -76.6683 339° North  Level Estimated
Sat 12:13:00 AM 39.1754 -76.6683 339° North  Level Estimated

Login

Don't have an account? Register now (free) for customized features, flight alerts, and more!